createdAt,value
2023-02-06T00:01:22.515Z,97017.20
2023-02-06T00:03:49.151Z,97018.20
2023-02-06T00:06:16.164Z,97020.40
2023-02-06T00:08:42.883Z,97018.80
2023-02-06T00:11:14.082Z,97017.60
2023-02-06T00:13:40.864Z,97014.20
2023-02-06T00:16:18.186Z,97018.40
2023-02-06T00:18:45.113Z,97023.00
2023-02-06T00:21:12.364Z,97020.00
2023-02-06T00:23:39.001Z,97014.60
2023-02-06T00:26:07.508Z,97014.60
2023-02-06T00:28:34.425Z,97029.00
2023-02-06T00:31:01.118Z,97030.20
2023-02-06T00:33:27.864Z,97033.00
2023-02-06T00:35:54.397Z,97039.00
2023-02-06T00:38:21.090Z,97038.80
2023-02-06T00:40:47.703Z,97033.80
2023-02-06T00:43:14.359Z,97032.20
2023-02-06T00:45:40.990Z,97032.20
2023-02-06T00:48:09.268Z,97040.80
2023-02-06T00:50:37.263Z,97048.40
2023-02-06T00:53:03.895Z,97040.00
2023-02-06T00:55:30.922Z,97036.00
2023-02-06T00:57:57.523Z,97036.60
2023-02-06T01:00:24.209Z,97040.60
2023-02-06T01:02:51.365Z,97035.00
2023-02-06T01:05:18.250Z,97036.60
2023-02-06T01:07:44.801Z,97039.80
2023-02-06T01:10:13.228Z,97038.00
2023-02-06T01:12:40.278Z,97046.40
2023-02-06T01:15:11.088Z,97044.60
2023-02-06T01:17:41.640Z,97048.80
2023-02-06T01:20:12.590Z,97054.80
2023-02-06T01:22:40.586Z,97055.00
2023-02-06T01:25:08.036Z,97049.60
2023-02-06T01:27:38.466Z,97050.00
2023-02-06T01:30:07.273Z,97041.60
2023-02-06T01:32:42.578Z,97039.80
2023-02-06T01:35:11.687Z,97041.60
2023-02-06T01:37:39.651Z,97037.80
2023-02-06T01:40:12.383Z,97036.40
2023-02-06T01:42:39.437Z,97045.20
2023-02-06T01:45:25.919Z,97039.40
2023-02-06T01:47:59.403Z,97042.40
2023-02-06T01:50:26.463Z,97044.40
2023-02-06T01:52:53.161Z,97037.80
2023-02-06T01:55:19.803Z,97034.40
2023-02-06T01:57:46.459Z,97036.80
2023-02-06T02:00:14.229Z,97038.20
2023-02-06T02:02:45.279Z,97031.60
2023-02-06T02:05:12.770Z,97027.20
2023-02-06T02:07:51.559Z,97027.40
2023-02-06T02:10:18.161Z,97029.20
2023-02-06T02:12:44.734Z,97021.40
2023-02-06T02:15:11.586Z,97021.60
2023-02-06T02:18:09.253Z,97021.00
2023-02-06T02:21:00.129Z,97023.60
2023-02-06T02:23:52.284Z,97022.40
2023-02-06T02:26:50.548Z,97023.60
2023-02-06T02:29:47.122Z,97030.80
2023-02-06T02:32:37.086Z,97034.40
2023-02-06T02:35:24.372Z,97035.00
2023-02-06T02:38:30.415Z,97040.00
2023-02-06T02:41:15.727Z,97035.00
2023-02-06T02:44:21.853Z,97022.40
2023-02-06T02:46:52.347Z,97017.20
2023-02-06T02:49:24.553Z,97008.20
2023-02-06T02:51:52.134Z,97011.60
2023-02-06T02:54:19.846Z,97015.60
2023-02-06T02:56:47.130Z,97019.60
2023-02-06T02:59:23.910Z,97012.60
2023-02-06T03:02:01.481Z,97009.60
2023-02-06T03:04:51.801Z,97010.00
2023-02-06T03:08:08.939Z,97021.00
2023-02-06T03:11:12.187Z,97022.40
2023-02-06T03:13:54.053Z,97020.00
2023-02-06T03:16:29.800Z,97020.40
2023-02-06T03:19:06.176Z,97024.80
2023-02-06T03:21:36.049Z,97029.00
2023-02-06T03:24:09.243Z,97032.00
2023-02-06T03:26:37.261Z,97028.80
2023-02-06T03:29:09.625Z,97024.20
2023-02-06T03:31:46.332Z,97029.60
2023-02-06T03:34:37.291Z,97031.60
2023-02-06T03:37:04.086Z,97038.00
2023-02-06T03:39:30.880Z,97038.00
2023-02-06T03:41:59.954Z,97039.80
2023-02-06T03:44:32.518Z,97042.20
2023-02-06T03:47:01.823Z,97051.00
2023-02-06T03:49:30.929Z,97053.00
2023-02-06T03:52:05.949Z,97053.00
2023-02-06T03:54:36.414Z,97055.20
2023-02-06T03:57:07.153Z,97057.20
2023-02-06T03:59:33.985Z,97063.80
2023-02-06T04:02:03.678Z,97068.20
2023-02-06T04:04:38.269Z,97069.20
2023-02-06T04:07:16.028Z,97066.80
2023-02-06T04:09:42.663Z,97069.40
2023-02-06T04:12:09.502Z,97072.40
2023-02-06T04:14:36.833Z,97071.40
2023-02-06T04:17:07.376Z,97067.80
2023-02-06T04:19:34.689Z,97068.40
2023-02-06T04:22:02.152Z,97068.20
2023-02-06T04:24:30.865Z,97067.80
2023-02-06T04:26:57.868Z,97064.20
2023-02-06T04:29:24.533Z,97052.20
2023-02-06T04:31:51.208Z,97054.40
2023-02-06T04:34:18.280Z,97051.40
2023-02-06T04:36:44.847Z,97042.00
2023-02-06T04:39:11.531Z,97044.20
2023-02-06T04:41:38.119Z,97037.80
2023-02-06T04:44:04.962Z,97028.80
2023-02-06T04:46:31.622Z,97021.80
2023-02-06T04:48:58.216Z,97020.60
2023-02-06T04:51:24.765Z,97024.20
2023-02-06T04:53:51.294Z,97025.20
2023-02-06T04:56:17.903Z,97023.00
2023-02-06T04:58:44.484Z,97027.80
2023-02-06T05:01:11.288Z,97032.40
2023-02-06T05:03:37.941Z,97041.00
2023-02-06T05:06:05.460Z,97041.60
2023-02-06T05:08:32.077Z,97044.60
2023-02-06T05:10:58.609Z,97050.40
2023-02-06T05:13:26.238Z,97042.60
2023-02-06T05:15:52.938Z,97038.00
2023-02-06T05:18:19.791Z,97036.00
2023-02-06T05:20:46.457Z,97042.40
2023-02-06T05:23:13.102Z,97041.60
2023-02-06T05:25:42.131Z,97036.60
2023-02-06T05:28:09.121Z,97037.60
2023-02-06T05:30:36.525Z,97035.40
2023-02-06T05:33:03.206Z,97028.40
2023-02-06T05:35:29.860Z,97021.00
2023-02-06T05:37:57.969Z,97012.60
2023-02-06T05:40:25.094Z,97017.40
2023-02-06T05:42:51.817Z,97007.20
2023-02-06T05:45:18.702Z,97006.40
2023-02-06T05:47:45.374Z,97006.40
2023-02-06T05:50:11.980Z,96999.40
2023-02-06T05:52:38.532Z,97007.80
2023-02-06T05:55:05.661Z,97017.40
2023-02-06T05:57:32.257Z,97012.00
2023-02-06T05:59:58.881Z,97010.20
2023-02-06T06:02:25.502Z,97011.80
2023-02-06T06:04:52.224Z,97011.80
2023-02-06T06:07:18.789Z,97009.20
2023-02-06T06:09:45.329Z,97007.80
2023-02-06T06:12:11.953Z,96999.00
2023-02-06T06:14:38.566Z,96999.40
2023-02-06T06:17:05.134Z,97005.60
2023-02-06T06:19:31.792Z,97002.60
2023-02-06T06:21:58.539Z,97004.40
2023-02-06T06:24:26.985Z,97004.20
2023-02-06T06:26:53.629Z,97001.60
2023-02-06T06:29:20.283Z,97008.40
2023-02-06T06:31:47.029Z,97014.80
2023-02-06T06:34:13.775Z,97025.20
2023-02-06T06:36:40.413Z,97023.40
2023-02-06T06:39:07.058Z,97020.60
2023-02-06T06:41:33.681Z,97014.20
2023-02-06T06:44:00.480Z,97015.20
2023-02-06T06:46:27.109Z,97009.20
2023-02-06T06:48:53.808Z,97012.00
2023-02-06T06:51:21.056Z,97015.40
2023-02-06T06:53:47.647Z,97025.40
2023-02-06T06:56:15.318Z,97024.80
2023-02-06T06:58:42.363Z,97021.80
2023-02-06T07:01:08.989Z,97021.20
2023-02-06T07:03:36.750Z,97017.80
2023-02-06T07:06:04.829Z,97025.00
2023-02-06T07:08:31.584Z,97029.40
2023-02-06T07:10:58.462Z,97027.80
2023-02-06T07:13:25.155Z,97029.20
2023-02-06T07:15:51.811Z,97024.80
2023-02-06T07:18:18.410Z,97029.80
2023-02-06T07:20:45.059Z,97029.00
2023-02-06T07:23:11.697Z,97029.00
2023-02-06T07:25:38.573Z,97026.00
2023-02-06T07:28:05.562Z,97023.60
2023-02-06T07:30:32.387Z,97023.80
2023-02-06T07:32:59.014Z,97022.40
2023-02-06T07:35:26.221Z,97035.20
2023-02-06T07:37:54.236Z,97033.00
2023-02-06T07:40:22.823Z,97021.20
2023-02-06T07:42:49.645Z,97020.60
2023-02-06T07:45:21.574Z,97028.20
2023-02-06T07:47:48.172Z,97019.60
2023-02-06T07:50:14.966Z,97015.60
2023-02-06T07:52:41.472Z,97023.00
2023-02-06T07:55:10.164Z,97022.60
2023-02-06T07:57:36.916Z,97029.00
2023-02-06T08:00:05.273Z,97035.60
2023-02-06T08:02:39.371Z,97037.00
2023-02-06T08:05:06.358Z,97033.00
2023-02-06T08:07:32.939Z,97034.60
2023-02-06T08:09:59.476Z,97042.00
2023-02-06T08:12:26.736Z,97046.20
2023-02-06T08:14:53.299Z,97046.00
2023-02-06T08:17:21.315Z,97055.20
2023-02-06T08:19:49.294Z,97052.40
2023-02-06T08:22:16.089Z,97053.40
2023-02-06T08:24:42.630Z,97051.40
2023-02-06T08:27:09.315Z,97049.80
2023-02-06T08:29:42.708Z,97048.60
2023-02-06T08:32:11.276Z,97051.20
2023-02-06T08:34:41.603Z,97053.20
2023-02-06T08:37:08.333Z,97055.40
2023-02-06T08:39:34.946Z,97055.20
2023-02-06T08:42:02.038Z,97049.60
2023-02-06T08:44:28.690Z,97043.60
2023-02-06T08:47:08.917Z,97047.40
2023-02-06T08:49:36.559Z,97058.40
2023-02-06T08:52:03.171Z,97059.20
2023-02-06T08:54:30.020Z,97053.80
2023-02-06T09:01:45.581Z,97055.00
2023-02-06T09:04:14.221Z,97054.80
2023-02-06T09:06:45.153Z,97046.20
2023-02-06T09:09:13.288Z,97048.60
2023-02-06T09:11:40.482Z,97048.00
2023-02-06T09:14:13.335Z,97052.20
2023-02-06T09:16:40.025Z,97053.20
2023-02-06T09:19:06.991Z,97046.60
2023-02-06T09:21:35.471Z,97042.60
2023-02-06T09:24:06.748Z,97039.00
2023-02-06T09:26:53.478Z,97049.80
2023-02-06T09:29:25.025Z,97057.80
2023-02-06T09:31:51.683Z,97053.40
2023-02-06T09:34:18.343Z,97046.80
2023-02-06T09:36:45.882Z,97046.20
2023-02-06T09:39:12.587Z,97042.00
2023-02-06T09:41:51.148Z,97034.00
2023-02-06T09:44:37.083Z,97035.00
2023-02-06T09:47:24.882Z,97034.40
2023-02-06T09:49:58.491Z,97032.40
2023-02-06T09:52:37.278Z,97021.20
2023-02-06T09:55:43.691Z,97014.00
2023-02-06T09:58:29.951Z,97004.60
2023-02-06T10:01:57.624Z,97004.80
2023-02-06T10:04:27.403Z,96989.20
2023-02-06T10:07:02.482Z,96986.00
2023-02-06T10:09:52.101Z,96982.60
2023-02-06T10:12:28.820Z,96990.00
2023-02-06T10:15:27.634Z,96989.80
2023-02-06T10:18:04.436Z,96984.80
2023-02-06T10:20:36.927Z,96981.60
2023-02-06T10:23:13.114Z,96983.60
2023-02-06T10:25:49.726Z,96982.20
2023-02-06T10:28:28.968Z,96989.20
2023-02-06T10:31:24.029Z,96982.40
2023-02-06T10:33:53.720Z,96976.00
2023-02-06T10:36:58.937Z,96969.20
2023-02-06T10:40:18.812Z,96969.40
2023-02-06T10:43:14.142Z,96960.20
2023-02-06T10:46:20.341Z,96958.40
2023-02-06T10:49:00.296Z,96951.40
2023-02-06T10:51:36.653Z,96949.00
2023-02-06T10:54:12.254Z,96937.80
2023-02-06T10:56:45.729Z,96934.40
2023-02-06T10:59:45.994Z,96937.80
2023-02-06T11:02:49.008Z,96937.00
2023-02-06T11:05:28.124Z,96924.20
2023-02-06T11:08:03.345Z,96929.80
2023-02-06T11:10:30.916Z,96918.80
2023-02-06T11:13:27.598Z,96925.00
2023-02-06T11:16:16.460Z,96918.80
2023-02-06T11:18:46.347Z,96910.40
2023-02-06T11:21:17.141Z,96910.40
2023-02-06T11:23:43.772Z,96910.40
2023-02-06T11:26:18.386Z,96908.00
2023-02-06T11:28:55.088Z,96900.20
2023-02-06T11:31:46.336Z,96898.60
2023-02-06T11:34:51.577Z,96894.80
2023-02-06T11:37:41.541Z,96891.60
2023-02-06T11:40:17.064Z,96887.80
2023-02-06T11:42:53.250Z,96885.80
2023-02-06T11:45:22.911Z,96878.60
2023-02-06T11:47:49.932Z,96875.80
2023-02-06T11:50:24.113Z,96878.20
2023-02-06T11:52:56.173Z,96873.00
2023-02-06T11:55:35.325Z,96874.60
2023-02-06T11:58:14.456Z,96876.60
2023-02-06T12:00:57.077Z,96871.40
2023-02-06T12:03:40.019Z,96861.40
2023-02-06T12:06:24.773Z,96862.00
2023-02-06T12:08:58.785Z,96857.60
2023-02-06T12:11:40.323Z,96857.00
2023-02-06T12:14:18.550Z,96859.40
2023-02-06T12:16:46.559Z,96856.60
2023-02-06T12:19:31.770Z,96857.40
2023-02-06T12:22:07.027Z,96860.40
2023-02-06T12:24:42.631Z,96865.80
2023-02-06T12:27:27.983Z,96879.60
2023-02-06T12:30:07.941Z,96879.20
2023-02-06T12:32:50.925Z,96876.00
2023-02-06T12:35:27.449Z,96874.60
2023-02-06T12:38:00.237Z,96873.60
2023-02-06T12:40:57.238Z,96866.40
2023-02-06T12:43:23.942Z,96853.40
2023-02-06T12:46:28.886Z,96836.80
2023-02-06T12:49:20.532Z,96823.20
2023-02-06T12:51:59.658Z,96824.40
2023-02-06T12:54:54.666Z,96809.40
2023-02-06T12:57:25.566Z,96807.20
2023-02-06T13:00:16.973Z,96801.40
2023-02-06T13:03:34.908Z,96807.60
2023-02-06T13:06:13.531Z,96814.80
2023-02-06T13:08:56.086Z,96807.80
2023-02-06T13:11:39.264Z,96811.40
2023-02-06T13:14:26.988Z,96819.60
2023-02-06T13:17:10.340Z,96815.00
2023-02-06T13:19:36.857Z,96816.20
2023-02-06T13:22:09.232Z,96812.60
2023-02-06T13:24:40.681Z,96823.60
2023-02-06T13:27:07.219Z,96821.20
2023-02-06T13:29:46.416Z,96828.80
2023-02-06T13:32:14.892Z,96830.40
2023-02-06T13:34:44.415Z,96833.00
2023-02-06T13:37:39.893Z,96833.60
2023-02-06T13:40:35.278Z,96844.40
2023-02-06T13:43:11.120Z,96844.80
2023-02-06T13:45:45.985Z,96851.60
2023-02-06T13:48:30.841Z,96854.60
2023-02-06T13:51:12.110Z,96850.60
2023-02-06T13:54:06.990Z,96842.60
2023-02-06T13:57:16.047Z,96846.00
2023-02-06T13:59:57.914Z,96845.80
2023-02-06T14:02:47.969Z,96847.40
2023-02-06T14:05:25.818Z,96840.80
2023-02-06T14:08:21.620Z,96840.40
2023-02-06T14:10:55.133Z,96846.40
2023-02-06T14:13:34.516Z,96845.00
2023-02-06T14:16:10.340Z,96835.40
2023-02-06T14:18:52.646Z,96831.40
2023-02-06T14:21:22.537Z,96826.20
2023-02-06T14:24:13.802Z,96827.40
2023-02-06T14:27:00.891Z,96829.40
2023-02-06T14:30:00.854Z,96829.80
2023-02-06T14:33:06.113Z,96830.40
2023-02-06T14:35:57.507Z,96832.20
2023-02-06T14:38:41.864Z,96823.80
2023-02-06T14:41:09.392Z,96815.40
2023-02-06T14:43:39.799Z,96811.20
2023-02-06T14:46:13.221Z,96812.80
2023-02-06T14:48:52.100Z,96809.80
2023-02-06T14:51:35.629Z,96813.00
2023-02-06T14:54:33.837Z,96806.20
2023-02-06T14:57:13.666Z,96813.80
2023-02-06T14:59:59.235Z,96813.80
2023-02-06T15:02:37.077Z,96803.80
2023-02-06T15:05:06.522Z,96795.60
2023-02-06T15:07:37.529Z,96793.60
2023-02-06T15:10:15.023Z,96794.80
2023-02-06T15:12:42.242Z,96799.20
2023-02-06T15:15:20.265Z,96802.00
2023-02-06T15:18:00.468Z,96803.60
2023-02-06T15:20:31.760Z,96803.20
2023-02-06T15:23:17.682Z,96806.80
2023-02-06T15:26:17.986Z,96806.60
2023-02-06T15:28:45.348Z,96801.60
2023-02-06T15:31:19.198Z,96809.40
2023-02-06T15:33:51.220Z,96808.60
2023-02-06T15:36:33.232Z,96811.20
2023-02-06T15:39:01.191Z,96811.60
2023-02-06T15:41:30.968Z,96809.40
2023-02-06T15:44:10.218Z,96807.00
2023-02-06T15:46:38.410Z,96804.20
2023-02-06T15:49:06.962Z,96807.60
2023-02-06T15:51:51.953Z,96799.20
2023-02-06T15:54:24.687Z,96792.60
2023-02-06T15:57:04.692Z,96793.60
2023-02-06T15:59:36.569Z,96795.20
2023-02-06T16:02:04.486Z,96793.00
2023-02-06T16:04:41.794Z,96802.80
2023-02-06T16:07:32.332Z,96801.60
2023-02-06T16:10:25.189Z,96801.20
2023-02-06T16:12:53.148Z,96806.80
2023-02-06T16:15:29.686Z,96808.00
2023-02-06T16:17:58.437Z,96808.20
2023-02-06T16:20:34.253Z,96805.80
2023-02-06T16:23:43.129Z,96810.00
2023-02-06T16:26:24.365Z,96817.20
2023-02-06T16:29:25.042Z,96823.40
2023-02-06T16:32:02.302Z,96834.80
2023-02-06T16:34:54.871Z,96832.40
2023-02-06T16:37:29.120Z,96839.40
2023-02-06T16:39:56.058Z,96845.60
2023-02-06T16:42:33.786Z,96854.20
2023-02-06T16:45:07.411Z,96858.20
2023-02-06T16:47:34.262Z,96861.00
2023-02-06T16:50:01.002Z,96865.20
2023-02-06T16:52:32.054Z,96868.40
2023-02-06T16:54:59.817Z,96870.60
2023-02-06T16:57:41.413Z,96873.20
2023-02-06T17:00:17.815Z,96874.40
2023-02-06T17:02:46.605Z,96871.00
2023-02-06T17:05:14.543Z,96875.00
2023-02-06T17:07:42.791Z,96877.40
2023-02-06T17:10:14.259Z,96884.00
2023-02-06T17:12:42.182Z,96883.60
2023-02-06T17:15:13.781Z,96888.20
2023-02-06T17:17:41.134Z,96900.20
2023-02-06T17:20:31.020Z,96903.20
2023-02-06T17:22:57.699Z,96908.80
2023-02-06T17:25:24.856Z,96910.20
2023-02-06T17:27:52.083Z,96907.40
2023-02-06T17:30:23.213Z,96914.40
2023-02-06T17:32:50.069Z,96916.40
2023-02-06T17:35:17.149Z,96909.80
2023-02-06T17:37:43.937Z,96908.00
2023-02-06T17:40:22.401Z,96901.60
2023-02-06T17:42:49.634Z,96897.00
2023-02-06T17:45:16.586Z,96891.80
2023-02-06T17:47:43.366Z,96895.00
2023-02-06T17:50:15.896Z,96897.00
2023-02-06T17:52:42.890Z,96903.40
2023-02-06T17:55:14.928Z,96902.80
2023-02-06T17:57:41.648Z,96899.40
2023-02-06T18:00:14.156Z,96898.00
2023-02-06T18:02:41.117Z,96900.40
2023-02-06T18:05:08.647Z,96900.60
2023-02-06T18:07:35.386Z,96897.20
2023-02-06T18:10:02.036Z,96896.20
2023-02-06T18:12:28.648Z,96895.40
2023-02-06T18:14:55.310Z,96898.00
2023-02-06T18:17:22.291Z,96900.00
2023-02-06T18:19:50.810Z,96910.60
2023-02-06T18:22:21.895Z,96908.80
2023-02-06T18:24:51.169Z,96912.20
2023-02-06T18:27:20.402Z,96909.80
2023-02-06T18:29:52.600Z,96911.00
2023-02-06T18:32:19.573Z,96904.20
2023-02-06T18:34:47.310Z,96900.20
2023-02-06T18:37:14.976Z,96897.60
2023-02-06T18:39:41.745Z,96892.00
2023-02-06T18:42:27.711Z,96887.00
2023-02-06T18:44:54.406Z,96884.00
2023-02-06T18:47:21.027Z,96891.20
2023-02-06T18:49:48.445Z,96885.20
2023-02-06T18:52:15.177Z,96887.40
2023-02-06T18:54:42.528Z,96887.40
2023-02-06T18:57:09.204Z,96881.40
2023-02-06T18:59:36.782Z,96878.00
2023-02-06T19:02:03.811Z,96882.40
2023-02-06T19:04:30.481Z,96888.80
2023-02-06T19:06:57.134Z,96887.40
2023-02-06T19:09:23.998Z,96894.60
2023-02-06T19:11:50.880Z,96890.60
2023-02-06T19:14:22.496Z,96884.80
2023-02-06T19:16:52.468Z,96884.20
2023-02-06T19:19:19.452Z,96881.80
2023-02-06T19:21:46.154Z,96876.40
2023-02-06T19:24:15.990Z,96883.20
2023-02-06T19:26:42.708Z,96891.60
2023-02-06T19:29:09.627Z,96893.80
2023-02-06T19:31:40.605Z,96901.20
2023-02-06T19:34:07.707Z,96899.80
2023-02-06T19:36:36.147Z,96898.40
2023-02-06T19:39:09.653Z,96906.40
2023-02-06T19:41:36.827Z,96905.20
2023-02-06T19:44:08.874Z,96905.00
2023-02-06T19:46:37.018Z,96907.60
2023-02-06T19:49:06.239Z,96905.00
2023-02-06T19:51:39.446Z,96902.60
2023-02-06T19:54:06.375Z,96898.20
2023-02-06T19:56:39.328Z,96896.20
2023-02-06T19:59:18.951Z,96896.00
2023-02-06T20:01:50.580Z,96890.80
2023-02-06T20:04:18.994Z,96896.00
2023-02-06T20:06:46.188Z,96891.80
2023-02-06T20:09:15.157Z,96896.80
2023-02-06T20:11:43.021Z,96903.20
2023-02-06T20:14:12.412Z,96909.80
2023-02-06T20:16:41.472Z,96916.40
2023-02-06T20:19:16.230Z,96913.80
2023-02-06T20:21:49.956Z,96914.40
2023-02-06T20:24:24.397Z,96914.60
2023-02-06T20:26:56.225Z,96911.80
2023-02-06T20:29:31.350Z,96902.80
2023-02-06T20:31:58.740Z,96896.60
2023-02-06T20:34:26.906Z,96890.20
2023-02-06T20:36:55.230Z,96896.80
2023-02-06T20:39:22.273Z,96913.80
2023-02-06T20:41:50.361Z,96932.40
2023-02-06T20:44:19.014Z,96935.40
2023-02-06T20:46:46.512Z,96932.20
2023-02-06T20:49:24.204Z,96927.20
2023-02-06T20:51:51.987Z,96933.60
2023-02-06T20:54:20.141Z,96930.40
2023-02-06T20:56:46.888Z,96930.80
2023-02-06T20:59:16.960Z,96930.20
2023-02-06T21:01:44.167Z,96938.80
2023-02-06T21:04:13.816Z,96948.00
2023-02-06T21:06:40.954Z,96946.80
2023-02-06T21:09:09.530Z,96941.20
2023-02-06T21:11:43.640Z,96947.80
2023-02-06T21:14:11.808Z,96944.40
2023-02-06T21:16:39.718Z,96946.00
2023-02-06T21:19:09.439Z,96942.60
2023-02-06T21:21:37.210Z,96942.60
2023-02-06T21:24:05.325Z,96947.80
2023-02-06T21:26:33.190Z,96950.20
2023-02-06T21:29:02.426Z,96945.80
2023-02-06T21:31:36.809Z,96938.40
2023-02-06T21:34:12.193Z,96935.20
2023-02-06T21:36:40.073Z,96935.40
2023-02-06T21:39:08.235Z,96935.60
2023-02-06T21:41:36.345Z,96939.80
2023-02-06T21:44:03.355Z,96933.00
2023-02-06T21:46:33.491Z,96935.40
2023-02-06T21:49:00.199Z,96938.40
2023-02-06T21:51:27.096Z,96943.20
2023-02-06T21:53:53.888Z,96937.00
2023-02-06T21:56:27.389Z,96943.40
2023-02-06T21:58:54.480Z,96942.40
2023-02-06T22:01:26.459Z,96946.60
2023-02-06T22:03:53.651Z,96940.40
2023-02-06T22:06:20.784Z,96941.80
2023-02-06T22:08:54.286Z,96934.00
2023-02-06T22:11:26.246Z,96917.00
2023-02-06T22:13:57.815Z,96913.20
2023-02-06T22:16:25.521Z,96912.80
2023-02-06T22:18:52.225Z,96911.20
2023-02-06T22:21:22.257Z,96902.40
2023-02-06T22:23:50.895Z,96909.80
2023-02-06T22:26:20.692Z,96906.80
2023-02-06T22:28:47.479Z,96896.20
2023-02-06T22:31:29.642Z,96892.80
2023-02-06T22:33:59.319Z,96895.20
2023-02-06T22:36:30.374Z,96899.20
2023-02-06T22:39:06.697Z,96896.40
2023-02-06T22:41:35.083Z,96894.80
2023-02-06T22:44:02.098Z,96886.40
2023-02-06T22:46:33.085Z,96887.80
2023-02-06T22:49:00.318Z,96880.20
2023-02-06T22:51:27.702Z,96878.80
2023-02-06T22:53:55.100Z,96882.00
2023-02-06T22:56:31.933Z,96894.20
2023-02-06T22:59:08.176Z,96902.20
2023-02-06T23:01:47.762Z,96905.80
2023-02-06T23:04:22.465Z,96912.80
2023-02-06T23:06:51.082Z,96921.80
2023-02-06T23:09:25.339Z,96925.60
2023-02-06T23:11:53.232Z,96928.80
2023-02-06T23:14:20.991Z,96932.40
2023-02-06T23:16:47.874Z,96936.80
2023-02-06T23:19:16.142Z,96937.40
2023-02-06T23:21:44.807Z,96940.00
2023-02-06T23:24:13.097Z,96946.00
2023-02-06T23:26:45.858Z,96950.60
2023-02-06T23:29:18.333Z,96949.80
2023-02-06T23:31:47.219Z,96949.00
2023-02-06T23:34:15.817Z,96952.20
2023-02-06T23:36:42.985Z,96959.00
2023-02-06T23:39:09.638Z,96964.00
2023-02-06T23:41:36.282Z,96967.00
2023-02-06T23:44:06.477Z,96973.00
2023-02-06T23:46:37.047Z,96972.40
2023-02-06T23:49:04.995Z,96977.80
2023-02-06T23:51:32.952Z,96991.00
2023-02-06T23:53:59.773Z,96996.40
2023-02-06T23:56:29.183Z,96988.80
2023-02-06T23:58:58.222Z,96985.40
